createdAt,value
2023-02-06T00:02:16.749Z,28.30
2023-02-06T00:04:45.609Z,29.70
2023-02-06T00:07:14.391Z,26.80
2023-02-06T00:09:42.879Z,28.50
2023-02-06T00:12:13.904Z,31.40
2023-02-06T00:14:42.402Z,30.40
2023-02-06T00:17:11.201Z,31.60
2023-02-06T00:19:39.900Z,33.20
2023-02-06T00:22:09.254Z,35.90
2023-02-06T00:24:37.685Z,32.40
2023-02-06T00:27:09.852Z,31.60
2023-02-06T00:29:38.311Z,32.30
2023-02-06T00:32:06.986Z,31.60
2023-02-06T00:34:35.562Z,31.20
2023-02-06T00:37:04.094Z,34.00
2023-02-06T00:39:32.707Z,30.90
2023-02-06T00:42:01.398Z,34.40
2023-02-06T00:44:29.789Z,32.10
2023-02-06T00:47:01.954Z,32.20
2023-02-06T00:49:30.749Z,38.60
2023-02-06T00:51:59.467Z,38.40
2023-02-06T00:54:28.403Z,38.70
2023-02-06T00:56:57.169Z,41.10
2023-02-06T00:59:26.107Z,36.80
2023-02-06T01:01:54.644Z,38.00
2023-02-06T01:04:23.188Z,36.20
2023-02-06T01:06:51.745Z,36.70
2023-02-06T01:09:20.458Z,36.40
2023-02-06T01:11:48.983Z,33.50
2023-02-06T01:14:17.799Z,36.60
2023-02-06T01:16:46.408Z,35.10
2023-02-06T01:19:15.838Z,34.30
2023-02-06T01:21:44.281Z,35.00
2023-02-06T01:24:13.194Z,31.90
2023-02-06T01:26:41.830Z,35.10
2023-02-06T01:29:10.345Z,30.60
2023-02-06T01:31:38.979Z,33.20
2023-02-06T01:34:08.181Z,32.50
2023-02-06T01:36:36.964Z,32.40
2023-02-06T01:39:07.261Z,34.30
2023-02-06T01:41:35.812Z,37.80
2023-02-06T01:44:22.386Z,34.80
2023-02-06T01:46:54.338Z,33.30
2023-02-06T01:49:33.572Z,31.60
2023-02-06T01:52:15.339Z,32.90
2023-02-06T01:54:47.940Z,34.40
2023-02-06T01:57:18.567Z,34.40
2023-02-06T01:59:54.866Z,33.30
2023-02-06T02:02:28.969Z,35.80
2023-02-06T02:04:58.999Z,36.60
2023-02-06T02:07:33.521Z,33.30
2023-02-06T02:10:11.311Z,36.80
2023-02-06T02:12:40.112Z,38.00
2023-02-06T02:15:09.022Z,35.80
2023-02-06T02:18:02.523Z,37.80
2023-02-06T02:21:07.920Z,34.40
2023-02-06T02:24:08.823Z,34.50
2023-02-06T02:27:02.807Z,33.10
2023-02-06T02:30:24.161Z,34.30
2023-02-06T02:33:22.136Z,37.20
2023-02-06T02:36:26.255Z,32.60
2023-02-06T02:39:16.148Z,34.30
2023-02-06T02:42:27.557Z,31.80
2023-02-06T02:45:08.498Z,30.90
2023-02-06T02:48:13.170Z,34.90
2023-02-06T02:50:45.277Z,33.50
2023-02-06T02:53:17.284Z,34.20
2023-02-06T02:55:45.850Z,33.20
2023-02-06T02:58:19.445Z,34.00
2023-02-06T03:01:08.534Z,29.60
2023-02-06T03:03:40.464Z,27.90
2023-02-06T03:06:25.230Z,32.20
2023-02-06T03:09:31.673Z,29.20
2023-02-06T03:12:24.769Z,29.80
2023-02-06T03:15:14.842Z,29.00
2023-02-06T03:18:19.990Z,31.90
2023-02-06T03:20:49.794Z,31.40
2023-02-06T03:23:25.041Z,32.80
2023-02-06T03:25:58.262Z,31.20
2023-02-06T03:28:32.814Z,31.30
2023-02-06T03:31:06.193Z,31.70
2023-02-06T03:33:49.438Z,32.90
2023-02-06T03:36:20.098Z,33.80
2023-02-06T03:38:51.106Z,31.70
2023-02-06T03:41:26.974Z,30.80
2023-02-06T03:43:57.003Z,34.30
2023-02-06T03:46:28.870Z,31.20
2023-02-06T03:49:03.937Z,30.60
2023-02-06T03:51:40.778Z,31.60
2023-02-06T03:54:13.556Z,32.00
2023-02-06T03:56:58.248Z,34.60
2023-02-06T03:59:27.161Z,33.00
2023-02-06T04:02:03.534Z,30.90
2023-02-06T04:04:38.667Z,28.40
2023-02-06T04:07:17.879Z,31.90
2023-02-06T04:09:46.663Z,32.00
2023-02-06T04:12:15.841Z,33.00
2023-02-06T04:14:47.739Z,28.80
2023-02-06T04:17:31.330Z,31.60
2023-02-06T04:20:06.704Z,31.00
2023-02-06T04:22:35.488Z,31.90
2023-02-06T04:25:04.489Z,32.40
2023-02-06T04:27:33.066Z,32.80
2023-02-06T04:30:01.745Z,31.90
2023-02-06T04:32:30.401Z,33.40
2023-02-06T04:34:58.996Z,33.10
2023-02-06T04:37:27.600Z,34.10
2023-02-06T04:39:56.067Z,33.70
2023-02-06T04:42:27.778Z,34.40
2023-02-06T04:44:58.760Z,33.50
2023-02-06T04:47:27.554Z,29.30
2023-02-06T04:49:55.995Z,33.10
2023-02-06T04:52:24.788Z,30.60
2023-02-06T04:54:53.243Z,28.90
2023-02-06T04:57:21.915Z,30.40
2023-02-06T04:59:50.392Z,30.40
2023-02-06T05:02:18.995Z,32.30
2023-02-06T05:04:47.657Z,29.20
2023-02-06T05:07:16.914Z,29.40
2023-02-06T05:09:46.171Z,30.10
2023-02-06T05:12:14.658Z,28.30
2023-02-06T05:14:43.091Z,30.30
2023-02-06T05:17:11.689Z,29.50
2023-02-06T05:19:40.447Z,29.60
2023-02-06T05:22:09.078Z,29.70
2023-02-06T05:24:37.976Z,29.20
2023-02-06T05:27:06.474Z,29.70
2023-02-06T05:29:34.977Z,29.00
2023-02-06T05:32:03.658Z,31.00
2023-02-06T05:34:32.312Z,28.50
2023-02-06T05:37:00.744Z,28.30
2023-02-06T05:39:29.606Z,30.60
2023-02-06T05:42:01.045Z,31.90
2023-02-06T05:44:32.677Z,33.90
2023-02-06T05:47:01.256Z,31.70
2023-02-06T05:49:29.713Z,29.60
2023-02-06T05:52:00.875Z,31.70
2023-02-06T05:54:31.708Z,30.80
2023-02-06T05:57:00.449Z,29.20
2023-02-06T05:59:38.611Z,29.80
2023-02-06T06:02:09.838Z,28.50
2023-02-06T06:04:38.589Z,30.00
2023-02-06T06:07:07.438Z,34.50
2023-02-06T06:09:36.003Z,31.20
2023-02-06T06:12:04.892Z,34.00
2023-02-06T06:14:36.654Z,33.20
2023-02-06T06:17:05.119Z,33.90
2023-02-06T06:19:36.470Z,32.80
2023-02-06T06:22:05.098Z,32.50
2023-02-06T06:24:36.713Z,33.30
2023-02-06T06:27:05.110Z,34.30
2023-02-06T06:29:35.825Z,32.90
2023-02-06T06:32:05.426Z,38.40
2023-02-06T06:34:34.106Z,33.10
2023-02-06T06:37:05.302Z,32.60
2023-02-06T06:39:33.845Z,33.10
2023-02-06T06:42:04.408Z,34.30
2023-02-06T06:44:33.103Z,32.00
2023-02-06T06:47:01.768Z,31.90
2023-02-06T06:49:30.248Z,30.00
2023-02-06T06:51:58.820Z,29.10
2023-02-06T06:54:27.280Z,30.40
2023-02-06T06:56:56.084Z,30.20
2023-02-06T06:59:24.662Z,29.90
2023-02-06T07:01:53.284Z,36.10
2023-02-06T07:04:21.844Z,40.10
2023-02-06T07:06:50.251Z,38.80
2023-02-06T07:09:18.828Z,39.10
2023-02-06T07:11:47.446Z,41.70
2023-02-06T07:14:16.579Z,41.60
2023-02-06T07:16:45.098Z,35.30
2023-02-06T07:19:13.563Z,39.70
2023-02-06T07:21:42.846Z,35.10
2023-02-06T07:24:11.269Z,35.30
2023-02-06T07:26:41.540Z,35.20
2023-02-06T07:29:10.265Z,34.70
2023-02-06T07:31:38.860Z,33.90
2023-02-06T07:34:10.653Z,33.30
2023-02-06T07:36:39.425Z,39.20
2023-02-06T07:39:08.001Z,39.10
2023-02-06T07:41:36.400Z,38.90
2023-02-06T07:44:08.008Z,41.70
2023-02-06T07:46:36.767Z,39.40
2023-02-06T07:49:05.195Z,38.30
2023-02-06T07:51:33.620Z,40.30
2023-02-06T07:54:01.981Z,39.10
2023-02-06T07:56:30.550Z,37.40
2023-02-06T07:58:59.136Z,39.60
2023-02-06T08:01:31.238Z,37.50
2023-02-06T08:03:59.659Z,36.20
2023-02-06T08:06:28.366Z,36.90
2023-02-06T08:08:57.112Z,38.20
2023-02-06T08:11:27.784Z,40.00
2023-02-06T08:13:57.303Z,40.20
2023-02-06T08:16:25.801Z,44.30
2023-02-06T08:18:54.283Z,37.30
2023-02-06T08:21:24.840Z,41.30
2023-02-06T08:24:00.944Z,39.40
2023-02-06T08:26:30.613Z,39.40
2023-02-06T08:29:03.689Z,40.40
2023-02-06T08:31:37.583Z,39.30
2023-02-06T08:34:08.588Z,40.90
2023-02-06T08:36:38.264Z,39.80
2023-02-06T08:39:07.303Z,36.80
2023-02-06T08:41:40.256Z,42.40
2023-02-06T08:44:13.778Z,35.20
2023-02-06T08:46:43.999Z,35.50
2023-02-06T08:49:21.751Z,65.40
2023-02-06T08:51:50.372Z,45.20
2023-02-06T08:54:22.657Z,42.70
2023-02-06T08:56:52.670Z,37.50
2023-02-06T08:59:21.071Z,37.80
2023-02-06T09:01:49.662Z,36.40
2023-02-06T09:04:19.222Z,36.30
2023-02-06T09:06:49.169Z,37.80
2023-02-06T09:09:18.924Z,33.50
2023-02-06T09:11:47.616Z,33.30
2023-02-06T09:14:18.057Z,33.20
2023-02-06T09:16:46.568Z,32.90
2023-02-06T09:19:15.087Z,31.40
2023-02-06T09:21:43.802Z,29.50
2023-02-06T09:24:12.389Z,33.90
2023-02-06T09:26:58.506Z,38.20
2023-02-06T09:29:31.888Z,35.20
2023-02-06T09:32:01.027Z,33.20
2023-02-06T09:34:30.026Z,32.90
2023-02-06T09:36:58.737Z,32.60
2023-02-06T09:39:27.183Z,32.10
2023-02-06T09:42:00.690Z,30.70
2023-02-06T09:44:44.093Z,31.60
2023-02-06T09:47:34.290Z,29.70
2023-02-06T09:50:41.326Z,28.50
2023-02-06T09:53:56.569Z,28.50
2023-02-06T09:56:40.064Z,26.30
2023-02-06T09:59:28.566Z,27.30
2023-02-06T10:02:38.386Z,64.00
2023-02-06T10:05:25.892Z,18.40
2023-02-06T10:08:13.163Z,16.40
2023-02-06T10:10:55.986Z,16.80
2023-02-06T10:13:38.775Z,11.60
2023-02-06T10:16:12.283Z,10.30
2023-02-06T10:18:55.144Z,17.70
2023-02-06T10:21:47.141Z,17.50
2023-02-06T10:24:28.387Z,17.60
2023-02-06T10:27:01.570Z,14.70
2023-02-06T10:29:34.589Z,11.20
2023-02-06T10:32:36.724Z,11.00
2023-02-06T10:35:46.171Z,15.80
2023-02-06T10:38:46.451Z,16.70
2023-02-06T10:41:49.606Z,12.80
2023-02-06T10:44:32.239Z,14.60
2023-02-06T10:47:00.821Z,15.10
2023-02-06T10:49:50.240Z,14.20
2023-02-06T10:52:28.925Z,13.40
2023-02-06T10:55:13.217Z,12.30
2023-02-06T10:57:44.738Z,10.10
2023-02-06T11:00:25.812Z,12.60
2023-02-06T11:03:07.561Z,11.30
2023-02-06T11:05:38.455Z,10.00
2023-02-06T11:08:41.739Z,11.20
2023-02-06T11:11:30.180Z,9.30
2023-02-06T11:14:25.747Z,9.90
2023-02-06T11:16:54.484Z,9.50
2023-02-06T11:19:42.743Z,10.40
2023-02-06T11:26:22.616Z,11.70
2023-02-06T11:28:58.732Z,11.10
2023-02-06T11:31:47.342Z,11.20
2023-02-06T11:34:36.354Z,10.20
2023-02-06T11:37:40.731Z,10.20
2023-02-06T11:40:18.321Z,11.50
2023-02-06T11:42:54.086Z,9.90
2023-02-06T11:45:32.056Z,10.80
2023-02-06T11:48:02.280Z,10.90
2023-02-06T11:50:38.041Z,19.10
2023-02-06T11:53:26.426Z,14.40
2023-02-06T11:56:06.498Z,10.40
2023-02-06T11:58:34.910Z,12.30
2023-02-06T12:01:23.617Z,11.00
2023-02-06T12:04:00.730Z,10.60
2023-02-06T12:06:40.221Z,10.60
2023-02-06T12:09:18.237Z,10.60
2023-02-06T12:12:01.950Z,11.80
2023-02-06T12:14:41.732Z,10.50
2023-02-06T12:20:59.872Z,13.00
2023-02-06T12:24:01.459Z,11.00
2023-02-06T12:26:33.754Z,10.90
2023-02-06T12:29:17.460Z,9.70
2023-02-06T12:31:56.890Z,13.30
2023-02-06T12:34:41.819Z,14.30
2023-02-06T12:37:50.403Z,25.70
2023-02-06T12:40:39.172Z,16.90
2023-02-06T12:43:14.295Z,18.70
2023-02-06T12:45:52.541Z,17.70
2023-02-06T12:48:55.442Z,12.60
2023-02-06T12:52:02.788Z,13.20
2023-02-06T12:54:44.425Z,12.10
2023-02-06T12:57:25.458Z,20.00
2023-02-06T13:00:13.740Z,19.90
2023-02-06T13:03:20.878Z,30.20
2023-02-06T13:06:14.588Z,11.90
2023-02-06T13:08:59.580Z,25.50
2023-02-06T13:11:35.501Z,13.30
2023-02-06T13:14:29.968Z,14.40
2023-02-06T13:17:18.166Z,23.70
2023-02-06T13:19:46.560Z,12.10
2023-02-06T13:22:19.407Z,25.20
2023-02-06T13:24:51.169Z,73.00
2023-02-06T13:27:39.397Z,56.40
2023-02-06T13:30:23.657Z,49.00
2023-02-06T13:32:54.056Z,12.50
2023-02-06T13:35:30.698Z,23.80
2023-02-06T13:41:17.002Z,49.90
2023-02-06T13:43:56.614Z,49.10
2023-02-06T13:47:02.617Z,83.30
2023-02-06T13:50:08.622Z,24.40
2023-02-06T13:52:49.457Z,23.00
2023-02-06T13:55:42.985Z,22.70
2023-02-06T13:58:39.160Z,32.50
2023-02-06T14:04:01.440Z,19.20
2023-02-06T14:15:22.376Z,23.10
2023-02-06T14:18:52.145Z,12.00
2023-02-06T14:22:19.557Z,30.30
2023-02-06T14:25:22.619Z,18.80
2023-02-06T14:28:30.664Z,46.80
2023-02-06T14:31:25.329Z,21.00
2023-02-06T14:34:19.723Z,22.30
2023-02-06T14:37:32.461Z,11.10
2023-02-06T14:40:04.697Z,13.10
2023-02-06T14:42:41.247Z,10.10
2023-02-06T14:45:41.631Z,16.90
2023-02-06T14:48:52.412Z,16.60
2023-02-06T14:51:25.926Z,14.30
2023-02-06T14:54:05.115Z,19.90
2023-02-06T14:56:39.805Z,16.50
2023-02-06T14:59:18.032Z,15.30
2023-02-06T15:01:52.368Z,15.00
2023-02-06T15:04:30.398Z,13.00
2023-02-06T15:07:04.232Z,11.30
2023-02-06T15:09:46.599Z,14.80
2023-02-06T15:12:26.709Z,16.70
2023-02-06T15:15:21.404Z,14.10
2023-02-06T15:18:16.315Z,16.90
2023-02-06T15:20:57.654Z,13.40
2023-02-06T15:23:55.509Z,14.90
2023-02-06T15:32:34.110Z,11.70
2023-02-06T15:35:03.294Z,12.30
2023-02-06T15:37:35.853Z,12.10
2023-02-06T15:40:31.823Z,13.00
2023-02-06T15:43:03.053Z,11.50
2023-02-06T15:45:39.119Z,12.40
2023-02-06T15:48:17.192Z,12.90
2023-02-06T15:51:08.268Z,10.80
2023-02-06T15:53:43.307Z,11.00
2023-02-06T15:56:34.609Z,9.80
2023-02-06T15:59:13.808Z,16.70
2023-02-06T16:01:43.567Z,11.70
2023-02-06T16:04:24.350Z,10.60
2023-02-06T16:07:27.608Z,14.80
2023-02-06T16:10:08.577Z,13.40
2023-02-06T16:12:42.449Z,11.60
2023-02-06T16:15:40.980Z,7.90
2023-02-06T16:18:40.488Z,8.40
2023-02-06T16:21:17.996Z,26.40
2023-02-06T16:23:54.577Z,17.60
2023-02-06T16:26:27.262Z,12.20
2023-02-06T16:29:05.638Z,17.80
2023-02-06T16:31:38.740Z,19.00
2023-02-06T16:34:45.464Z,18.20
2023-02-06T16:37:21.976Z,16.30
2023-02-06T16:39:50.604Z,35.30
2023-02-06T16:42:23.427Z,39.90
2023-02-06T16:45:08.325Z,32.10
2023-02-06T16:47:38.160Z,51.70
2023-02-06T16:50:08.997Z,26.10
2023-02-06T16:52:55.044Z,23.70
2023-02-06T16:55:28.870Z,16.90
2023-02-06T16:58:01.427Z,17.90
2023-02-06T17:00:32.571Z,14.30
2023-02-06T17:03:02.476Z,11.50
2023-02-06T17:05:33.205Z,16.00
2023-02-06T17:08:06.937Z,14.10
2023-02-06T17:10:35.729Z,13.10
2023-02-06T17:13:04.676Z,16.10
2023-02-06T17:15:33.243Z,19.20
2023-02-06T17:18:02.026Z,19.80
2023-02-06T17:20:40.460Z,21.30
2023-02-06T17:23:11.045Z,19.90
2023-02-06T17:25:40.588Z,22.20
2023-02-06T17:28:17.266Z,21.50
2023-02-06T17:30:51.048Z,19.20
2023-02-06T17:33:22.617Z,19.40
2023-02-06T17:35:51.384Z,17.60
2023-02-06T17:38:22.918Z,19.40
2023-02-06T17:41:00.751Z,18.00
2023-02-06T17:43:29.712Z,20.70
2023-02-06T17:46:01.318Z,21.10
2023-02-06T17:48:29.952Z,18.50
2023-02-06T17:50:58.525Z,24.10
2023-02-06T17:53:27.209Z,23.80
2023-02-06T17:56:05.821Z,29.70
2023-02-06T17:58:36.994Z,30.60
2023-02-06T18:01:14.154Z,32.50
2023-02-06T18:03:43.075Z,23.90
2023-02-06T18:06:13.432Z,23.30
2023-02-06T18:08:44.676Z,27.50
2023-02-06T18:11:22.552Z,25.10
2023-02-06T18:13:51.341Z,20.90
2023-02-06T18:16:27.320Z,26.50
2023-02-06T18:18:59.233Z,28.80
2023-02-06T18:21:30.802Z,30.70
2023-02-06T18:23:59.299Z,24.60
2023-02-06T18:26:28.108Z,23.30
2023-02-06T18:28:56.612Z,23.40
2023-02-06T18:31:40.489Z,26.40
2023-02-06T18:34:09.073Z,24.30
2023-02-06T18:36:38.322Z,23.20
2023-02-06T18:39:07.598Z,21.80
2023-02-06T18:41:54.970Z,19.90
2023-02-06T18:52:41.361Z,33.60
2023-02-06T18:55:10.083Z,34.70
2023-02-06T18:57:46.384Z,60.80
2023-02-06T19:00:21.903Z,46.20
2023-02-06T19:03:06.448Z,37.70
2023-02-06T19:05:36.059Z,33.90
2023-02-06T19:08:04.591Z,32.80
2023-02-06T19:10:33.137Z,40.00
2023-02-06T19:13:05.836Z,44.90
2023-02-06T19:15:35.976Z,39.50
2023-02-06T19:18:05.833Z,45.70
2023-02-06T19:20:34.562Z,42.70
2023-02-06T19:23:10.779Z,42.60
2023-02-06T19:25:53.547Z,42.70
2023-02-06T19:28:22.283Z,45.50
2023-02-06T19:30:50.808Z,39.80
2023-02-06T19:33:30.643Z,40.40
2023-02-06T19:36:07.420Z,37.90
2023-02-06T19:38:36.176Z,36.70
2023-02-06T19:41:11.797Z,29.90
2023-02-06T19:43:48.528Z,33.30
2023-02-06T19:46:25.212Z,27.80
2023-02-06T19:48:55.209Z,25.90
2023-02-06T19:51:37.434Z,28.30
2023-02-06T19:54:06.506Z,41.50
2023-02-06T19:56:44.196Z,53.60
2023-02-06T19:59:22.766Z,48.40
2023-02-06T20:02:05.830Z,48.10
2023-02-06T20:04:36.591Z,49.70
2023-02-06T20:07:06.963Z,46.10
2023-02-06T20:09:41.192Z,39.70
2023-02-06T20:12:12.804Z,37.40
2023-02-06T20:15:11.381Z,42.50
2023-02-06T20:17:51.806Z,37.80
2023-02-06T20:20:20.710Z,35.60
2023-02-06T20:22:49.293Z,42.00
2023-02-06T20:25:24.081Z,41.50
2023-02-06T20:27:56.264Z,41.70
2023-02-06T20:38:40.300Z,39.00
2023-02-06T20:41:14.320Z,33.30
2023-02-06T20:43:43.175Z,30.90
2023-02-06T20:46:17.462Z,30.20
2023-02-06T20:48:52.413Z,31.10
2023-02-06T20:51:25.132Z,32.70
2023-02-06T20:53:57.121Z,35.30
2023-02-06T20:56:27.099Z,40.10
2023-02-06T20:58:57.912Z,41.50
2023-02-06T21:01:29.524Z,49.00
2023-02-06T21:04:08.317Z,54.80
2023-02-06T21:06:39.525Z,41.20
2023-02-06T21:09:17.549Z,36.40
2023-02-06T21:11:50.294Z,48.50
2023-02-06T21:14:25.643Z,58.90
2023-02-06T21:20:16.081Z,65.90
2023-02-06T21:22:45.086Z,75.40
2023-02-06T21:25:13.631Z,70.00
2023-02-06T21:27:42.461Z,62.70
2023-02-06T21:30:14.344Z,66.50
2023-02-06T21:33:02.422Z,64.60
2023-02-06T21:35:36.916Z,57.50
2023-02-06T21:38:05.615Z,51.80
2023-02-06T21:40:37.545Z,49.80
2023-02-06T21:43:24.542Z,49.00
2023-02-06T21:45:53.173Z,44.70
2023-02-06T21:48:24.907Z,45.10
2023-02-06T21:50:56.975Z,46.60
2023-02-06T21:53:25.558Z,44.10
2023-02-06T21:56:25.601Z,45.40
2023-02-06T21:59:08.074Z,45.00
2023-02-06T22:02:10.492Z,40.90
2023-02-06T22:04:41.782Z,48.40
2023-02-06T22:07:13.860Z,41.80
2023-02-06T22:09:53.737Z,44.50
2023-02-06T22:12:22.713Z,43.10
2023-02-06T22:15:04.351Z,45.00
2023-02-06T22:17:32.918Z,46.60
2023-02-06T22:20:19.053Z,51.20
2023-02-06T22:22:56.956Z,49.70
2023-02-06T22:25:56.297Z,50.00
2023-02-06T22:28:38.239Z,52.20
2023-02-06T22:31:29.482Z,60.40
2023-02-06T22:34:00.298Z,57.50
2023-02-06T22:36:57.338Z,66.10
2023-02-06T22:39:34.905Z,65.90
2023-02-06T22:42:13.565Z,45.70
2023-02-06T22:44:50.959Z,42.10
2023-02-06T22:47:28.548Z,48.50
2023-02-06T22:50:19.634Z,44.90
2023-02-06T22:53:19.516Z,44.40
2023-02-06T22:56:41.749Z,43.30
2023-02-06T22:59:37.653Z,46.00
2023-02-06T23:02:38.043Z,44.10
2023-02-06T23:05:27.129Z,43.50
2023-02-06T23:08:59.227Z,51.10
2023-02-06T23:12:19.832Z,45.20
2023-02-06T23:14:57.513Z,48.10
2023-02-06T23:17:48.928Z,46.80
2023-02-06T23:20:17.890Z,46.10
2023-02-06T23:22:55.226Z,50.70
2023-02-06T23:26:17.241Z,47.90
2023-02-06T23:28:55.306Z,47.40
2023-02-06T23:31:28.715Z,45.90
2023-02-06T23:34:08.898Z,46.60
2023-02-06T23:36:40.395Z,47.90
2023-02-06T23:39:28.101Z,48.50
2023-02-06T23:43:17.524Z,53.40
2023-02-06T23:46:56.734Z,50.10
2023-02-06T23:49:53.291Z,56.40
2023-02-06T23:52:27.246Z,71.20
2023-02-06T23:55:28.031Z,67.30
2023-02-06T23:58:46.506Z,63.50
